createdAt,value
2022-11-20T00:01:24.859Z,99586.75
2022-11-20T00:03:54.201Z,99584.28
2022-11-20T00:06:22.512Z,99584.03
2022-11-20T00:08:50.153Z,99584.13
2022-11-20T00:11:20.067Z,99582.13
2022-11-20T00:13:49.210Z,99584.34
2022-11-20T00:16:19.073Z,99583.31
2022-11-20T00:18:47.257Z,99572.50
2022-11-20T00:21:22.705Z,99580.59
2022-11-20T00:23:52.509Z,99593.59
2022-11-20T00:26:21.971Z,99586.38
2022-11-20T00:28:52.153Z,99583.72
2022-11-20T00:31:19.944Z,99581.37
2022-11-20T00:33:47.605Z,99581.13
2022-11-20T00:36:17.946Z,99587.94
2022-11-20T00:38:45.800Z,99600.78
2022-11-20T00:41:16.126Z,99611.09
2022-11-20T00:43:43.978Z,99603.00
2022-11-20T00:46:16.570Z,99581.78
2022-11-20T00:48:45.122Z,99583.91
2022-11-20T00:51:14.363Z,99581.31
2022-11-20T00:53:42.008Z,99573.13
2022-11-20T00:56:16.167Z,99572.22
2022-11-20T00:58:45.419Z,99569.03
2022-11-20T01:01:15.306Z,99569.09
2022-11-20T01:03:46.559Z,99564.75
2022-11-20T01:06:17.722Z,99576.00
2022-11-20T01:08:45.977Z,99576.19
2022-11-20T01:11:19.865Z,99581.94
2022-11-20T01:13:49.202Z,99591.13
2022-11-20T01:16:22.890Z,99589.66
2022-11-20T01:18:52.731Z,99591.78
2022-11-20T01:21:23.042Z,99598.88
2022-11-20T01:23:51.196Z,99605.44
2022-11-20T01:26:24.652Z,99606.84
2022-11-20T01:28:52.344Z,99596.19
2022-11-20T01:31:20.752Z,99590.56
2022-11-20T01:33:50.798Z,99597.81
2022-11-20T01:36:19.590Z,99585.41
2022-11-20T01:38:47.261Z,99584.09
2022-11-20T01:41:36.120Z,99588.53
2022-11-20T01:44:04.601Z,99592.53
2022-11-20T01:46:33.584Z,99577.59
2022-11-20T01:49:04.767Z,99572.13
2022-11-20T01:52:13.881Z,99576.13
2022-11-20T01:54:50.507Z,99564.03
2022-11-20T01:57:19.171Z,99559.50
2022-11-20T01:59:52.745Z,99568.09
2022-11-20T02:02:21.771Z,99568.75
2022-11-20T02:04:50.692Z,99566.03
2022-11-20T02:07:18.630Z,99570.38
2022-11-20T02:09:46.242Z,99572.06
2022-11-20T02:12:33.988Z,99586.66
2022-11-20T02:15:01.524Z,99581.22
2022-11-20T02:17:29.198Z,99570.12
2022-11-20T02:19:56.722Z,99576.69
2022-11-20T02:22:32.523Z,99577.06
2022-11-20T02:25:07.299Z,99589.63
2022-11-20T02:27:34.828Z,99599.00
2022-11-20T02:30:08.598Z,99594.75
2022-11-20T02:32:37.629Z,99575.75
2022-11-20T02:35:31.466Z,99565.78
2022-11-20T02:38:03.283Z,99568.25
2022-11-20T02:40:30.900Z,99567.75
2022-11-20T02:42:58.580Z,99569.41
2022-11-20T02:45:26.242Z,99567.59
2022-11-20T02:47:53.910Z,99565.84
2022-11-20T02:50:21.283Z,99554.25
2022-11-20T02:52:48.679Z,99566.69
2022-11-20T02:55:16.745Z,99570.06
2022-11-20T02:57:44.331Z,99577.88
2022-11-20T03:00:12.481Z,99567.97
2022-11-20T03:02:40.124Z,99547.84
2022-11-20T03:05:07.639Z,99551.06
2022-11-20T03:07:35.043Z,99544.56
2022-11-20T03:10:02.738Z,99532.50
2022-11-20T03:12:30.279Z,99542.34
2022-11-20T03:14:57.628Z,99534.25
2022-11-20T03:17:25.239Z,99534.16
2022-11-20T03:19:52.538Z,99541.78
2022-11-20T03:22:19.893Z,99543.66
2022-11-20T03:24:47.468Z,99568.06
2022-11-20T03:27:14.783Z,99573.03
2022-11-20T03:29:42.136Z,99569.66
2022-11-20T03:32:09.691Z,99567.00
2022-11-20T03:34:37.242Z,99565.38
2022-11-20T03:37:04.559Z,99561.19
2022-11-20T03:39:32.117Z,99554.88
2022-11-20T03:41:59.457Z,99556.63
2022-11-20T03:44:26.764Z,99544.28
2022-11-20T03:46:54.604Z,99544.91
2022-11-20T03:49:22.223Z,99552.88
2022-11-20T03:51:49.700Z,99552.31
2022-11-20T03:54:18.574Z,99558.69
2022-11-20T03:56:45.884Z,99573.16
2022-11-20T03:59:13.272Z,99565.94
2022-11-20T04:01:45.440Z,99564.50
2022-11-20T04:04:15.864Z,99552.72
2022-11-20T04:06:43.183Z,99553.00
2022-11-20T04:09:10.824Z,99547.34
2022-11-20T04:11:40.832Z,99537.56
2022-11-20T04:14:14.530Z,99532.97
2022-11-20T04:16:42.458Z,99529.13
2022-11-20T04:19:14.635Z,99516.34
2022-11-20T04:21:43.215Z,99515.09
2022-11-20T04:24:11.528Z,99509.25
2022-11-20T04:26:39.184Z,99504.59
2022-11-20T04:29:06.841Z,99517.78
2022-11-20T04:31:35.540Z,99515.09
2022-11-20T04:34:04.667Z,99515.72
2022-11-20T04:36:32.939Z,99517.75
2022-11-20T04:39:02.510Z,99515.03
2022-11-20T04:41:32.627Z,99514.41
2022-11-20T04:44:04.140Z,99506.78
2022-11-20T04:46:34.636Z,99506.47
2022-11-20T04:49:02.698Z,99512.09
2022-11-20T04:51:30.135Z,99502.00
2022-11-20T04:53:57.590Z,99500.06
2022-11-20T04:56:25.303Z,99488.03
2022-11-20T04:58:52.619Z,99492.75
2022-11-20T05:01:22.124Z,99486.75
2022-11-20T05:03:50.304Z,99501.09
2022-11-20T05:09:04.740Z,99510.66
2022-11-20T05:11:32.746Z,99506.44
2022-11-20T05:14:00.931Z,99509.19
2022-11-20T05:16:28.605Z,99503.72
2022-11-20T05:18:56.247Z,99495.28
2022-11-20T05:21:23.841Z,99495.25
2022-11-20T05:23:51.413Z,99502.41
2022-11-20T05:26:22.266Z,99505.78
2022-11-20T05:28:50.279Z,99492.75
2022-11-20T05:31:27.086Z,99489.94
2022-11-20T05:33:56.850Z,99480.81
2022-11-20T05:36:24.490Z,99458.97
2022-11-20T05:38:55.516Z,99464.44
2022-11-20T05:41:26.073Z,99456.78
2022-11-20T05:43:53.464Z,99471.16
2022-11-20T05:46:27.722Z,99473.66
2022-11-20T05:48:57.013Z,99494.97
2022-11-20T05:51:24.997Z,99493.28
2022-11-20T05:53:52.315Z,99498.19
2022-11-20T05:56:21.366Z,99495.03
2022-11-20T05:58:48.977Z,99513.28
2022-11-20T06:01:19.983Z,99513.16
2022-11-20T06:03:48.735Z,99502.78
2022-11-20T06:06:16.682Z,99510.50
2022-11-20T06:08:44.611Z,99517.56
2022-11-20T06:11:14.042Z,99507.78
2022-11-20T06:13:43.013Z,99504.03
2022-11-20T06:16:11.649Z,99511.91
2022-11-20T06:18:39.682Z,99508.91
2022-11-20T06:21:10.271Z,99506.03
2022-11-20T06:23:37.892Z,99517.56
2022-11-20T06:26:16.292Z,99505.03
2022-11-20T06:28:43.708Z,99512.19
2022-11-20T06:31:14.420Z,99508.31
2022-11-20T06:33:42.908Z,99515.28
2022-11-20T06:36:11.978Z,99536.22
2022-11-20T06:38:39.928Z,99548.56
2022-11-20T06:41:09.697Z,99554.53
2022-11-20T06:43:37.286Z,99548.50
2022-11-20T06:46:04.714Z,99551.19
2022-11-20T06:48:32.143Z,99556.44
2022-11-20T06:50:59.821Z,99546.63
2022-11-20T06:53:27.202Z,99550.09
2022-11-20T06:55:57.167Z,99538.78
2022-11-20T06:58:27.659Z,99530.72
2022-11-20T07:00:58.663Z,99533.41
2022-11-20T07:03:26.328Z,99529.00
2022-11-20T07:05:56.481Z,99531.41
2022-11-20T07:08:24.007Z,99539.28
2022-11-20T07:10:51.661Z,99536.47
2022-11-20T07:13:18.998Z,99547.38
2022-11-20T07:15:46.310Z,99558.63
2022-11-20T07:18:13.915Z,99557.59
2022-11-20T07:20:41.467Z,99560.34
2022-11-20T07:23:08.914Z,99558.81
2022-11-20T07:25:36.837Z,99554.25
2022-11-20T07:28:04.741Z,99562.56
2022-11-20T07:30:32.112Z,99558.34
2022-11-20T07:32:59.712Z,99566.19
2022-11-20T07:35:27.127Z,99559.25
2022-11-20T07:37:54.513Z,99560.66
2022-11-20T07:40:22.168Z,99557.47
2022-11-20T07:42:53.447Z,99554.09
2022-11-20T07:45:22.091Z,99563.19
2022-11-20T07:47:49.747Z,99567.53
2022-11-20T07:50:17.625Z,99567.13
2022-11-20T07:52:45.155Z,99561.50
2022-11-20T07:55:12.979Z,99564.84
2022-11-20T07:57:40.401Z,99564.69
2022-11-20T08:00:10.316Z,99550.25
2022-11-20T08:02:40.463Z,99551.91
2022-11-20T08:05:09.418Z,99540.78
2022-11-20T08:07:41.104Z,99537.13
2022-11-20T08:10:11.020Z,99533.50
2022-11-20T08:13:04.198Z,99549.78
2022-11-20T08:15:32.886Z,99537.00
2022-11-20T08:21:05.067Z,99539.28
2022-11-20T08:23:32.585Z,99546.16
2022-11-20T08:25:59.941Z,99548.69
2022-11-20T08:28:27.502Z,99535.84
2022-11-20T08:30:59.751Z,99530.22
2022-11-20T08:33:27.067Z,99542.47
2022-11-20T08:35:54.648Z,99555.50
2022-11-20T08:38:23.150Z,99556.69
2022-11-20T08:41:10.382Z,99556.00
2022-11-20T08:43:37.984Z,99555.09
2022-11-20T08:46:05.419Z,99564.75
2022-11-20T08:48:32.727Z,99561.13
2022-11-20T08:51:00.544Z,99569.59
2022-11-20T08:53:28.458Z,99566.69
2022-11-20T08:55:57.832Z,99571.59
2022-11-20T08:58:26.117Z,99580.09
2022-11-20T09:00:54.102Z,99590.97
2022-11-20T09:03:21.589Z,99585.28
2022-11-20T09:05:49.235Z,99584.78
2022-11-20T09:08:16.598Z,99589.03
2022-11-20T09:10:43.977Z,99582.81
2022-11-20T09:13:11.600Z,99582.66
2022-11-20T09:15:38.924Z,99584.53
2022-11-20T09:18:06.210Z,99580.69
2022-11-20T09:20:33.908Z,99583.59
2022-11-20T09:23:01.340Z,99586.88
2022-11-20T09:25:28.727Z,99592.56
2022-11-20T09:27:59.839Z,99586.28
2022-11-20T09:30:28.374Z,99581.44
2022-11-20T09:32:56.340Z,99573.84
2022-11-20T09:35:23.832Z,99574.81
2022-11-20T09:37:51.464Z,99576.94
2022-11-20T09:40:28.043Z,99576.13
2022-11-20T09:43:08.358Z,99575.97
2022-11-20T09:45:59.413Z,99584.50
2022-11-20T09:48:48.565Z,99582.00
2022-11-20T09:51:43.858Z,99578.19
2022-11-20T09:54:19.460Z,99575.44
2022-11-20T09:57:00.787Z,99576.66
2022-11-20T09:59:41.026Z,99574.72
2022-11-20T10:02:17.805Z,99575.22
2022-11-20T10:04:54.268Z,99568.47
2022-11-20T10:07:33.315Z,99566.50
2022-11-20T10:10:01.461Z,99565.38
2022-11-20T10:12:56.861Z,99561.31
2022-11-20T10:16:20.066Z,99553.34
2022-11-20T10:18:53.758Z,99547.75
2022-11-20T10:21:46.068Z,99538.75
2022-11-20T10:24:38.055Z,99533.16
2022-11-20T10:27:19.970Z,99516.94
2022-11-20T10:29:50.360Z,99530.47
2022-11-20T10:32:21.482Z,99537.13
2022-11-20T10:34:55.149Z,99523.81
2022-11-20T10:37:27.365Z,99527.06
2022-11-20T10:40:18.622Z,99521.22
2022-11-20T10:42:52.132Z,99514.44
2022-11-20T10:45:25.333Z,99516.03
2022-11-20T10:47:59.861Z,99519.69
2022-11-20T10:50:27.802Z,99507.31
2022-11-20T10:53:24.880Z,99515.72
2022-11-20T10:55:57.488Z,99519.06
2022-11-20T10:58:40.365Z,99521.50
2022-11-20T11:01:16.807Z,99529.66
2022-11-20T11:03:45.008Z,99538.56
2022-11-20T11:06:31.217Z,99531.09
2022-11-20T11:09:04.332Z,99549.03
2022-11-20T11:11:33.892Z,99530.63
2022-11-20T11:14:11.864Z,99529.47
2022-11-20T11:16:53.685Z,99544.41
2022-11-20T11:19:21.865Z,99551.69
2022-11-20T11:21:55.634Z,99553.75
2022-11-20T11:24:44.442Z,99546.63
2022-11-20T11:27:17.264Z,99549.00
2022-11-20T11:29:46.542Z,99553.28
2022-11-20T11:32:20.002Z,99548.03
2022-11-20T11:35:03.773Z,99542.88
2022-11-20T11:37:36.810Z,99546.78
2022-11-20T11:42:57.801Z,99533.25
2022-11-20T11:45:25.717Z,99531.81
2022-11-20T11:47:54.319Z,99526.63
2022-11-20T11:50:27.066Z,99526.97
2022-11-20T11:53:06.588Z,99512.72
2022-11-20T11:55:41.170Z,99505.41
2022-11-20T11:58:21.428Z,99497.03
2022-11-20T12:00:57.088Z,99503.97
2022-11-20T12:03:37.854Z,99505.66
2022-11-20T12:06:14.610Z,99506.66
2022-11-20T12:08:53.695Z,99512.28
2022-11-20T12:11:32.508Z,99503.63
2022-11-20T12:14:20.791Z,99502.16
2022-11-20T12:16:48.158Z,99506.53
2022-11-20T12:19:16.188Z,99502.94
2022-11-20T12:22:01.391Z,99509.03
2022-11-20T12:24:59.840Z,99491.50
2022-11-20T12:27:48.384Z,99493.94
2022-11-20T12:30:17.836Z,99489.13
2022-11-20T12:33:13.870Z,99481.00
2022-11-20T12:36:08.794Z,99488.97
2022-11-20T12:38:46.884Z,99491.16
2022-11-20T12:42:03.557Z,99490.84
2022-11-20T12:45:02.794Z,99484.56
2022-11-20T12:48:02.441Z,99490.91
2022-11-20T12:50:47.583Z,99490.72
2022-11-20T12:53:34.568Z,99495.84
2022-11-20T12:56:34.218Z,99493.50
2022-11-20T12:59:19.624Z,99500.72
2022-11-20T13:01:55.939Z,99513.13
2022-11-20T13:04:46.538Z,99503.97
2022-11-20T13:07:16.177Z,99502.50
2022-11-20T13:09:50.187Z,99493.06
2022-11-20T13:12:37.809Z,99492.47
2022-11-20T13:15:08.132Z,99507.75
2022-11-20T13:17:41.880Z,99510.75
2022-11-20T13:20:20.046Z,99507.66
2022-11-20T13:22:49.258Z,99502.38
2022-11-20T13:25:25.230Z,99502.66
2022-11-20T13:27:53.407Z,99494.78
2022-11-20T13:30:25.730Z,99491.69
2022-11-20T13:32:58.000Z,99492.31
2022-11-20T13:35:34.449Z,99485.19
2022-11-20T13:38:03.585Z,99469.38
2022-11-20T13:40:31.647Z,99459.31
2022-11-20T13:43:10.169Z,99468.81
2022-11-20T13:45:38.453Z,99459.16
2022-11-20T13:48:22.366Z,99458.78
2022-11-20T13:51:03.659Z,99453.88
2022-11-20T13:53:54.010Z,99455.62
2022-11-20T13:56:49.008Z,99452.09
2022-11-20T13:59:34.023Z,99453.84
2022-11-20T14:02:02.748Z,99446.94
2022-11-20T14:04:34.867Z,99444.25
2022-11-20T14:07:02.822Z,99446.03
2022-11-20T14:09:33.059Z,99447.94
2022-11-20T14:12:01.318Z,99452.69
2022-11-20T14:14:30.649Z,99452.44
2022-11-20T14:17:08.562Z,99456.94
2022-11-20T14:19:38.264Z,99456.38
2022-11-20T14:22:27.757Z,99464.59
2022-11-20T14:25:06.417Z,99465.22
2022-11-20T14:27:40.368Z,99472.19
2022-11-20T14:30:19.759Z,99476.28
2022-11-20T14:32:48.444Z,99480.03
2022-11-20T14:35:23.265Z,99473.13
2022-11-20T14:37:51.555Z,99475.94
2022-11-20T14:40:38.111Z,99478.84
2022-11-20T14:43:27.448Z,99490.59
2022-11-20T14:46:05.394Z,99489.75
2022-11-20T14:48:40.554Z,99492.25
2022-11-20T14:51:11.614Z,99495.06
2022-11-20T14:53:40.755Z,99496.16
2022-11-20T14:56:09.674Z,99499.66
2022-11-20T14:58:37.520Z,99499.75
2022-11-20T15:01:08.596Z,99500.16
2022-11-20T15:03:39.085Z,99501.62
2022-11-20T15:06:09.312Z,99497.16
2022-11-20T15:08:37.518Z,99509.47
2022-11-20T15:11:19.407Z,99504.75
2022-11-20T15:13:48.882Z,99512.16
2022-11-20T15:16:22.038Z,99503.09
2022-11-20T15:18:49.943Z,99509.53
2022-11-20T15:21:19.786Z,99500.56
2022-11-20T15:23:47.341Z,99505.47
2022-11-20T15:26:25.621Z,99501.34
2022-11-20T15:28:53.527Z,99499.53
2022-11-20T15:31:24.016Z,99505.81
2022-11-20T15:33:53.035Z,99495.28
2022-11-20T15:36:21.267Z,99507.28
2022-11-20T15:38:49.960Z,99496.56
2022-11-20T15:41:17.835Z,99503.84
2022-11-20T15:43:46.223Z,99503.78
2022-11-20T15:46:18.246Z,99505.28
2022-11-20T15:48:48.759Z,99503.81
2022-11-20T15:51:35.900Z,99503.09
2022-11-20T15:54:12.499Z,99501.47
2022-11-20T15:56:40.338Z,99505.03
2022-11-20T15:59:08.579Z,99501.81
2022-11-20T16:01:37.758Z,99506.59
2022-11-20T16:04:09.369Z,99500.78
2022-11-20T16:06:37.159Z,99501.09
2022-11-20T16:09:05.216Z,99503.09
2022-11-20T16:11:33.654Z,99495.78
2022-11-20T16:14:23.464Z,99501.38
2022-11-20T16:16:52.476Z,99493.28
2022-11-20T16:19:20.568Z,99494.31
2022-11-20T16:21:48.550Z,99501.62
2022-11-20T16:24:17.334Z,99502.06
2022-11-20T16:26:45.296Z,99510.06
2022-11-20T16:29:13.368Z,99500.00
2022-11-20T16:31:41.594Z,99507.16
2022-11-20T16:34:12.274Z,99503.41
2022-11-20T16:36:41.750Z,99509.12
2022-11-20T16:39:10.626Z,99517.25
2022-11-20T16:41:38.108Z,99501.84
2022-11-20T16:44:10.726Z,99507.66
2022-11-20T16:46:44.124Z,99498.56
2022-11-20T16:49:15.594Z,99504.00
2022-11-20T16:51:43.918Z,99496.72
2022-11-20T16:54:19.424Z,99491.78
2022-11-20T16:56:49.374Z,99488.31
2022-11-20T16:59:17.502Z,99491.41
2022-11-20T17:01:45.537Z,99501.44
2022-11-20T17:04:14.961Z,99490.41
2022-11-20T17:06:48.169Z,99498.09
2022-11-20T17:09:16.410Z,99492.16
2022-11-20T17:11:43.868Z,99485.06
2022-11-20T17:14:13.403Z,99477.13
2022-11-20T17:16:41.997Z,99474.16
2022-11-20T17:19:11.842Z,99476.06
2022-11-20T17:21:40.098Z,99468.63
2022-11-20T17:24:11.257Z,99465.69
2022-11-20T17:26:41.216Z,99457.59
2022-11-20T17:29:15.510Z,99447.88
2022-11-20T17:31:43.950Z,99441.38
2022-11-20T17:34:13.673Z,99445.28
2022-11-20T17:36:45.786Z,99450.78
2022-11-20T17:39:15.470Z,99445.97
2022-11-20T17:41:43.481Z,99455.72
2022-11-20T17:44:12.450Z,99434.31
2022-11-20T17:46:41.095Z,99431.81
2022-11-20T17:49:09.707Z,99425.22
2022-11-20T17:51:37.702Z,99424.13
2022-11-20T17:54:08.218Z,99424.09
2022-11-20T17:56:54.971Z,99423.41
2022-11-20T17:59:23.159Z,99436.50
2022-11-20T18:01:50.742Z,99437.06
2022-11-20T18:04:18.957Z,99446.88
2022-11-20T18:06:46.965Z,99445.19
2022-11-20T18:09:14.930Z,99447.19
2022-11-20T18:11:43.618Z,99455.88
2022-11-20T18:14:49.904Z,99457.88
2022-11-20T18:17:18.922Z,99462.94
2022-11-20T18:20:07.194Z,99458.97
2022-11-20T18:22:38.563Z,99469.66
2022-11-20T18:25:06.772Z,99460.31
2022-11-20T18:27:34.961Z,99467.81
2022-11-20T18:30:03.180Z,99482.59
2022-11-20T18:32:31.585Z,99471.59
2022-11-20T18:34:59.660Z,99487.94
2022-11-20T18:37:29.030Z,99495.50
2022-11-20T18:39:57.517Z,99492.97
2022-11-20T18:42:44.142Z,99488.16
2022-11-20T18:45:12.468Z,99494.81
2022-11-20T18:47:40.182Z,99500.13
2022-11-20T18:50:09.548Z,99514.75
2022-11-20T18:52:44.937Z,99516.97
2022-11-20T18:55:14.807Z,99515.88
2022-11-20T18:57:43.503Z,99508.44
2022-11-20T19:00:12.157Z,99506.91
2022-11-20T19:02:42.763Z,99504.22
2022-11-20T19:05:13.539Z,99492.44
2022-11-20T19:07:42.289Z,99500.59
2022-11-20T19:10:11.254Z,99500.03
2022-11-20T19:12:39.690Z,99501.12
2022-11-20T19:15:08.201Z,99507.53
2022-11-20T19:17:37.453Z,99521.34
2022-11-20T19:20:07.075Z,99527.22
2022-11-20T19:22:38.271Z,99530.25
2022-11-20T19:25:06.994Z,99533.28
2022-11-20T19:27:35.048Z,99531.13
2022-11-20T19:30:03.928Z,99535.31
2022-11-20T19:32:32.957Z,99526.88
2022-11-20T19:35:02.014Z,99527.56
2022-11-20T19:37:33.163Z,99517.41
2022-11-20T19:40:04.416Z,99496.09
2022-11-20T19:42:32.751Z,99491.22
2022-11-20T19:45:04.016Z,99498.94
2022-11-20T19:48:00.601Z,99501.03
2022-11-20T19:50:22.246Z,99502.41
2022-11-20T19:52:53.145Z,99496.38
2022-11-20T19:55:25.342Z,99490.44
2022-11-20T19:57:53.849Z,99498.47
2022-11-20T20:00:29.420Z,99491.53
2022-11-20T20:03:01.311Z,99495.56
2022-11-20T20:05:29.161Z,99500.09
2022-11-20T20:07:57.939Z,99505.16
2022-11-20T20:10:26.285Z,99509.66
2022-11-20T20:12:55.313Z,99484.03
2022-11-20T20:15:23.138Z,99470.47
2022-11-20T20:17:54.428Z,99466.69
2022-11-20T20:20:22.856Z,99471.00
2022-11-20T20:22:51.994Z,99469.63
2022-11-20T20:25:20.045Z,99464.91
2022-11-20T20:27:48.094Z,99467.63
2022-11-20T20:30:25.428Z,99468.94
2022-11-20T20:32:56.290Z,99471.41
2022-11-20T20:35:30.059Z,99468.75
2022-11-20T20:37:59.029Z,99462.50
2022-11-20T20:40:27.445Z,99447.34
2022-11-20T20:42:55.403Z,99455.41
2022-11-20T20:45:23.982Z,99462.06
2022-11-20T20:47:52.187Z,99467.63
2022-11-20T20:50:20.256Z,99464.94
2022-11-20T20:52:48.823Z,99462.28
2022-11-20T20:55:17.253Z,99464.72
2022-11-20T20:57:44.952Z,99462.66
2022-11-20T21:00:13.324Z,99460.13
2022-11-20T21:02:42.351Z,99467.13
2022-11-20T21:05:10.481Z,99464.84
2022-11-20T21:07:58.293Z,99463.16
2022-11-20T21:10:27.609Z,99463.47
2022-11-20T21:12:55.133Z,99465.81
2022-11-20T21:15:23.240Z,99462.66
2022-11-20T21:17:51.175Z,99470.69
2022-11-20T21:20:37.403Z,99479.03
2022-11-20T21:23:09.489Z,99460.59
2022-11-20T21:25:38.446Z,99446.38
2022-11-20T21:28:07.332Z,99458.03
2022-11-20T21:30:35.082Z,99454.19
2022-11-20T21:33:02.693Z,99462.56
2022-11-20T21:35:30.538Z,99460.59
2022-11-20T21:37:58.036Z,99456.31
2022-11-20T21:40:25.888Z,99454.34
2022-11-20T21:42:54.279Z,99478.06
2022-11-20T21:45:22.014Z,99479.12
2022-11-20T21:47:50.380Z,99472.06
2022-11-20T21:50:18.697Z,99472.41
2022-11-20T21:52:46.085Z,99462.97
2022-11-20T21:55:13.450Z,99469.97
2022-11-20T21:57:41.058Z,99469.19
2022-11-20T22:00:09.150Z,99467.03
2022-11-20T22:02:40.282Z,99467.28
2022-11-20T22:05:08.367Z,99465.47
2022-11-20T22:07:35.898Z,99460.50
2022-11-20T22:10:03.873Z,99454.44
2022-11-20T22:12:31.538Z,99449.44
2022-11-20T22:14:58.914Z,99447.53
2022-11-20T22:17:44.737Z,99454.06
2022-11-20T22:20:12.365Z,99445.84
2022-11-20T22:22:40.151Z,99444.41
2022-11-20T22:25:07.867Z,99436.63
2022-11-20T22:27:35.565Z,99430.59
2022-11-20T22:30:02.894Z,99432.16
2022-11-20T22:32:30.272Z,99417.69
2022-11-20T22:34:57.844Z,99416.06
2022-11-20T22:37:25.173Z,99419.66
2022-11-20T22:39:52.890Z,99417.62
2022-11-20T22:42:20.524Z,99414.75
2022-11-20T22:44:47.842Z,99414.87
2022-11-20T22:47:15.183Z,99411.19
2022-11-20T22:49:42.848Z,99402.97
2022-11-20T22:52:10.160Z,99406.22
2022-11-20T22:54:37.436Z,99418.41
2022-11-20T22:57:05.007Z,99408.16
2022-11-20T22:59:32.608Z,99409.50
2022-11-20T23:02:00.068Z,99405.78
2022-11-20T23:04:27.658Z,99408.91
2022-11-20T23:06:54.998Z,99405.06
2022-11-20T23:09:22.326Z,99400.25
2022-11-20T23:11:49.912Z,99400.16
2022-11-20T23:14:17.214Z,99378.78
2022-11-20T23:16:44.517Z,99374.13
2022-11-20T23:19:14.130Z,99383.44
2022-11-20T23:21:42.855Z,99376.13
2022-11-20T23:24:10.694Z,99384.13
2022-11-20T23:26:40.149Z,99381.94
2022-11-20T23:29:08.160Z,99389.31
2022-11-20T23:31:36.065Z,99387.47
2022-11-20T23:34:04.240Z,99390.78
2022-11-20T23:36:31.923Z,99387.66
2022-11-20T23:38:59.260Z,99379.72
2022-11-20T23:41:26.872Z,99391.63
2022-11-20T23:46:39.311Z,99388.44
2022-11-20T23:49:06.534Z,99391.72
2022-11-20T23:51:33.856Z,99382.41
2022-11-20T23:54:04.755Z,99385.91
2022-11-20T23:56:32.545Z,99381.38
2022-11-20T23:58:59.947Z,99382.50
